sensor_id;sensor_type;location;lat;lon;timestamp;pressure;altitude;pressure_sealevel;temperature;humidity
56198;BME280;42700;42.524;12.052;2022-11-03T00:01:33;97153.41;;;12.86;100.00
56198;BME280;42700;42.524;12.052;2022-11-03T00:04:00;97154.25;;;12.80;100.00
56198;BME280;42700;42.524;12.052;2022-11-03T00:06:25;97147.28;;;12.79;100.00
56198;BME280;42700;42.524;12.052;2022-11-03T00:08:50;97136.22;;;12.75;100.00
56198;BME280;42700;42.524;12.052;2022-11-03T00:11:16;97161.22;;;12.81;100.00
56198;BME280;42700;42.524;12.052;2022-11-03T00:13:42;97167.56;;;12.80;100.00
56198;BME280;42700;42.524;12.052;2022-11-03T00:16:09;97178.84;;;12.82;100.00
56198;BME280;42700;42.524;12.052;2022-11-03T00:18:35;97211.22;;;12.85;100.00
56198;BME280;42700;42.524;12.052;2022-11-03T00:21:03;97215.13;;;12.83;100.00
56198;BME280;42700;42.524;12.052;2022-11-03T00:23:29;97254.91;;;12.91;100.00
56198;BME280;42700;42.524;12.052;2022-11-03T00:26:01;97278.28;;;12.96;100.00
56198;BME280;42700;42.524;12.052;2022-11-03T00:28:29;97288.13;;;12.95;100.00
56198;BME280;42700;42.524;12.052;2022-11-03T00:30:54;97318.25;;;13.02;100.00
56198;BME280;42700;42.524;12.052;2022-11-03T00:33:20;97360.97;;;13.16;100.00
56198;BME280;42700;42.524;12.052;2022-11-03T00:35:45;97394.25;;;13.33;100.00
56198;BME280;42700;42.524;12.052;2022-11-03T00:38:11;97439.84;;;13.52;100.00
56198;BME280;42700;42.524;12.052;2022-11-03T00:40:36;97464.94;;;13.64;100.00
56198;BME280;42700;42.524;12.052;2022-11-03T00:43:02;97460.81;;;13.68;100.00
56198;BME280;42700;42.524;12.052;2022-11-03T00:45:27;97411.78;;;13.62;100.00
56198;BME280;42700;42.524;12.052;2022-11-03T00:47:54;97382.41;;;13.56;100.00
56198;BME280;42700;42.524;12.052;2022-11-03T00:50:38;97397.59;;;13.55;100.00
56198;BME280;42700;42.524;12.052;2022-11-03T00:53:03;97369.47;;;13.53;100.00
56198;BME280;42700;42.524;12.052;2022-11-03T00:55:29;97367.00;;;13.51;100.00
56198;BME280;42700;42.524;12.052;2022-11-03T00:57:54;97334.81;;;13.46;100.00
56198;BME280;42700;42.524;12.052;2022-11-03T01:00:20;97361.28;;;13.47;100.00
56198;BME280;42700;42.524;12.052;2022-11-03T01:02:45;97386.91;;;13.48;100.00
56198;BME280;42700;42.524;12.052;2022-11-03T01:05:11;97435.38;;;13.59;100.00
56198;BME280;42700;42.524;12.052;2022-11-03T01:07:55;97330.28;;;13.46;100.00
56198;BME280;42700;42.524;12.052;2022-11-03T01:10:20;97294.19;;;13.37;100.00
56198;BME280;42700;42.524;12.052;2022-11-03T01:12:46;97326.19;;;13.37;100.00
56198;BME280;42700;42.524;12.052;2022-11-03T01:15:11;97362.69;;;13.43;100.00
56198;BME280;42700;42.524;12.052;2022-11-03T01:17:38;97333.75;;;13.40;100.00
56198;BME280;42700;42.524;12.052;2022-11-03T01:20:03;97316.53;;;13.36;100.00
56198;BME280;42700;42.524;12.052;2022-11-03T01:22:29;97320.22;;;13.35;100.00
56198;BME280;42700;42.524;12.052;2022-11-03T01:24:55;97344.84;;;13.37;100.00
56198;BME280;42700;42.524;12.052;2022-11-03T01:27:20;97404.16;;;13.46;100.00
56198;BME280;42700;42.524;12.052;2022-11-03T01:29:49;97333.16;;;13.45;100.00
56198;BME280;42700;42.524;12.052;2022-11-03T01:32:15;97312.22;;;13.42;100.00
56198;BME280;42700;42.524;12.052;2022-11-03T01:34:41;97374.22;;;13.51;100.00
56198;BME280;42700;42.524;12.052;2022-11-03T01:37:06;97323.31;;;13.45;100.00
56198;BME280;42700;42.524;12.052;2022-11-03T01:39:32;97275.69;;;13.29;100.00
56198;BME280;42700;42.524;12.052;2022-11-03T01:41:57;97265.81;;;13.23;100.00
56198;BME280;42700;42.524;12.052;2022-11-03T01:44:25;97245.72;;;13.20;100.00
56198;BME280;42700;42.524;12.052;2022-11-03T01:47:02;97220.69;;;13.15;100.00
56198;BME280;42700;42.524;12.052;2022-11-03T01:49:33;97216.78;;;13.10;100.00
56198;BME280;42700;42.524;12.052;2022-11-03T01:54:37;97185.84;;;13.03;100.00
56198;BME280;42700;42.524;12.052;2022-11-03T01:57:05;97158.34;;;12.96;100.00
56198;BME280;42700;42.524;12.052;2022-11-03T01:59:34;97152.19;;;12.95;100.00
56198;BME280;42700;42.524;12.052;2022-11-03T02:02:00;97160.81;;;12.97;100.00
56198;BME280;42700;42.524;12.052;2022-11-03T02:04:26;97176.59;;;12.99;100.00
56198;BME280;42700;42.524;12.052;2022-11-03T02:06:56;97206.31;;;13.02;100.00
56198;BME280;42700;42.524;12.052;2022-11-03T02:09:24;97204.69;;;13.01;100.00
56198;BME280;42700;42.524;12.052;2022-11-03T02:11:50;97196.50;;;12.96;100.00
56198;BME280;42700;42.524;12.052;2022-11-03T02:14:32;97171.06;;;12.87;100.00
56198;BME280;42700;42.524;12.052;2022-11-03T02:17:00;97159.78;;;12.78;100.00
56198;BME280;42700;42.524;12.052;2022-11-03T02:26:56;97108.50;;;12.56;100.00
56198;BME280;42700;42.524;12.052;2022-11-03T02:29:22;97112.03;;;12.57;100.00
56198;BME280;42700;42.524;12.052;2022-11-03T02:31:48;97128.41;;;12.60;100.00
56198;BME280;42700;42.524;12.052;2022-11-03T02:34:20;97166.53;;;12.74;100.00
56198;BME280;42700;42.524;12.052;2022-11-03T02:36:54;97215.53;;;12.80;100.00
56198;BME280;42700;42.524;12.052;2022-11-03T02:39:24;97217.16;;;12.81;100.00
56198;BME280;42700;42.524;12.052;2022-11-03T02:41:51;97286.47;;;12.94;100.00
56198;BME280;42700;42.524;12.052;2022-11-03T02:44:18;97209.16;;;12.81;100.00
56198;BME280;42700;42.524;12.052;2022-11-03T02:46:45;97167.97;;;12.63;100.00
56198;BME280;42700;42.524;12.052;2022-11-03T02:49:12;97141.91;;;12.52;100.00
56198;BME280;42700;42.524;12.052;2022-11-03T02:51:38;97111.38;;;12.41;100.00
56198;BME280;42700;42.524;12.052;2022-11-03T02:56:30;97150.94;;;12.58;100.00
56198;BME280;42700;42.524;12.052;2022-11-03T02:59:01;97138.66;;;12.57;100.00
56198;BME280;42700;42.524;12.052;2022-11-03T03:04:05;97174.69;;;12.59;100.00
56198;BME280;42700;42.524;12.052;2022-11-03T03:06:33;97209.34;;;12.72;100.00
56198;BME280;42700;42.524;12.052;2022-11-03T03:09:04;97308.22;;;12.91;100.00
56198;BME280;42700;42.524;12.052;2022-11-03T03:11:32;97283.81;;;12.94;100.00
56198;BME280;42700;42.524;12.052;2022-11-03T03:14:09;97251.41;;;12.97;100.00
56198;BME280;42700;42.524;12.052;2022-11-03T03:16:46;97238.94;;;12.91;100.00
56198;BME280;42700;42.524;12.052;2022-11-03T03:21:42;97293.44;;;12.95;100.00
56198;BME280;42700;42.524;12.052;2022-11-03T03:24:12;97296.94;;;13.02;100.00
56198;BME280;42700;42.524;12.052;2022-11-03T03:26:43;97299.84;;;13.07;100.00
56198;BME280;42700;42.524;12.052;2022-11-03T03:29:12;97276.88;;;13.06;100.00
56198;BME280;42700;42.524;12.052;2022-11-03T03:31:40;97258.00;;;13.01;100.00
56198;BME280;42700;42.524;12.052;2022-11-03T03:34:07;97239.53;;;12.93;100.00
56198;BME280;42700;42.524;12.052;2022-11-03T03:36:33;97224.34;;;12.87;100.00
56198;BME280;42700;42.524;12.052;2022-11-03T03:38:59;97230.06;;;12.84;100.00
56198;BME280;42700;42.524;12.052;2022-11-03T03:41:26;97221.06;;;12.85;100.00
56198;BME280;42700;42.524;12.052;2022-11-03T03:43:54;97202.41;;;12.78;100.00
56198;BME280;42700;42.524;12.052;2022-11-03T03:46:22;97242.38;;;12.85;100.00
56198;BME280;42700;42.524;12.052;2022-11-03T03:48:49;97241.34;;;12.86;100.00
56198;BME280;42700;42.524;12.052;2022-11-03T03:51:15;97202.81;;;12.82;100.00
56198;BME280;42700;42.524;12.052;2022-11-03T03:53:42;97156.50;;;12.69;100.00
56198;BME280;42700;42.524;12.052;2022-11-03T03:56:07;97099.31;;;12.52;100.00
56198;BME280;42700;42.524;12.052;2022-11-03T03:58:33;97088.25;;;12.48;100.00
56198;BME280;42700;42.524;12.052;2022-11-03T04:00:58;97060.56;;;12.43;100.00
56198;BME280;42700;42.524;12.052;2022-11-03T04:03:24;97044.38;;;12.37;100.00
56198;BME280;42700;42.524;12.052;2022-11-03T04:05:50;97044.38;;;12.37;100.00
56198;BME280;42700;42.524;12.052;2022-11-03T04:08:16;97061.22;;;12.45;100.00
56198;BME280;42700;42.524;12.052;2022-11-03T04:10:42;97089.06;;;12.49;100.00
56198;BME280;42700;42.524;12.052;2022-11-03T04:13:27;97117.75;;;12.60;100.00
56198;BME280;42700;42.524;12.052;2022-11-03T04:16:11;97152.00;;;12.70;100.00
56198;BME280;42700;42.524;12.052;2022-11-03T04:18:55;97243.38;;;12.77;100.00
56198;BME280;42700;42.524;12.052;2022-11-03T04:21:39;97232.94;;;12.76;100.00
56198;BME280;42700;42.524;12.052;2022-11-03T04:24:23;97201.34;;;12.72;100.00
56198;BME280;42700;42.524;12.052;2022-11-03T04:26:48;97250.16;;;12.80;100.00
56198;BME280;42700;42.524;12.052;2022-11-03T04:29:14;97268.22;;;12.84;100.00
56198;BME280;42700;42.524;12.052;2022-11-03T04:31:39;97305.94;;;12.88;100.00
56198;BME280;42700;42.524;12.052;2022-11-03T04:34:09;97266.59;;;12.90;100.00
56198;BME280;42700;42.524;12.052;2022-11-03T04:36:36;97318.06;;;12.97;100.00
56198;BME280;42700;42.524;12.052;2022-11-03T04:39:01;97254.47;;;12.94;100.00
56198;BME280;42700;42.524;12.052;2022-11-03T04:41:33;97309.66;;;13.00;100.00
56198;BME280;42700;42.524;12.052;2022-11-03T04:43:59;97271.72;;;12.98;100.00
56198;BME280;42700;42.524;12.052;2022-11-03T04:46:26;97125.56;;;12.82;100.00
56198;BME280;42700;42.524;12.052;2022-11-03T04:48:52;97025.97;;;12.56;100.00
56198;BME280;42700;42.524;12.052;2022-11-03T04:51:19;96983.34;;;12.43;100.00
56198;BME280;42700;42.524;12.052;2022-11-03T04:53:51;96952.84;;;12.39;100.00
56198;BME280;42700;42.524;12.052;2022-11-03T04:56:19;96964.09;;;12.41;100.00
56198;BME280;42700;42.524;12.052;2022-11-03T04:58:45;96969.84;;;12.44;100.00
56198;BME280;42700;42.524;12.052;2022-11-03T05:01:12;96982.94;;;12.46;100.00
56198;BME280;42700;42.524;12.052;2022-11-03T05:03:39;96984.59;;;12.47;100.00
56198;BME280;42700;42.524;12.052;2022-11-03T05:06:38;96980.91;;;12.48;100.00
56198;BME280;42700;42.524;12.052;2022-11-03T05:08:57;96999.56;;;12.48;100.00
56198;BME280;42700;42.524;12.052;2022-11-03T05:11:28;96974.97;;;12.46;100.00
56198;BME280;42700;42.524;12.052;2022-11-03T05:13:56;96996.91;;;12.48;100.00
56198;BME280;42700;42.524;12.052;2022-11-03T05:16:23;97064.50;;;12.53;100.00
56198;BME280;42700;42.524;12.052;2022-11-03T05:18:48;97049.31;;;12.54;100.00
56198;BME280;42700;42.524;12.052;2022-11-03T05:21:14;97037.03;;;12.53;100.00
56198;BME280;42700;42.524;12.052;2022-11-03T05:24:04;97017.16;;;12.49;100.00
56198;BME280;42700;42.524;12.052;2022-11-03T05:26:33;96978.88;;;12.36;100.00
56198;BME280;42700;42.524;12.052;2022-11-03T05:29:00;96950.59;;;12.29;100.00
56198;BME280;42700;42.524;12.052;2022-11-03T05:31:27;96918.88;;;12.21;100.00
56198;BME280;42700;42.524;12.052;2022-11-03T05:33:55;96943.44;;;12.29;100.00
56198;BME280;42700;42.524;12.052;2022-11-03T05:36:22;96946.09;;;12.29;100.00
56198;BME280;42700;42.524;12.052;2022-11-03T05:38:48;96969.84;;;12.31;100.00
56198;BME280;42700;42.524;12.052;2022-11-03T05:41:18;96975.81;;;12.33;100.00
56198;BME280;42700;42.524;12.052;2022-11-03T05:43:47;96982.94;;;12.32;100.00
56198;BME280;42700;42.524;12.052;2022-11-03T05:46:15;97004.84;;;12.34;100.00
56198;BME280;42700;42.524;12.052;2022-11-03T05:48:41;97037.03;;;12.40;100.00
56198;BME280;42700;42.524;12.052;2022-11-03T05:51:31;97099.72;;;12.49;100.00
56198;BME280;42700;42.524;12.052;2022-11-03T05:53:56;97153.59;;;12.58;100.00
56198;BME280;42700;42.524;12.052;2022-11-03T05:56:25;97224.72;;;12.70;100.00
56198;BME280;42700;42.524;12.052;2022-11-03T05:58:52;97294.41;;;12.81;100.00
56198;BME280;42700;42.524;12.052;2022-11-03T06:01:35;97379.97;;;12.92;100.00
56198;BME280;42700;42.524;12.052;2022-11-03T06:04:03;97437.63;;;13.07;100.00
56198;BME280;42700;42.524;12.052;2022-11-03T06:06:36;97473.34;;;13.13;100.00
56198;BME280;42700;42.524;12.052;2022-11-03T06:09:08;97430.88;;;13.11;100.00
56198;BME280;42700;42.524;12.052;2022-11-03T06:11:36;97445.03;;;13.11;100.00
56198;BME280;42700;42.524;12.052;2022-11-03T06:14:04;97541.47;;;13.22;100.00
56198;BME280;42700;42.524;12.052;2022-11-03T06:16:38;97587.00;;;13.27;100.00
56198;BME280;42700;42.524;12.052;2022-11-03T06:21:45;97617.25;;;13.34;100.00
56198;BME280;42700;42.524;12.052;2022-11-03T06:24:11;97585.47;;;13.33;100.00
56198;BME280;42700;42.524;12.052;2022-11-03T06:26:38;97617.88;;;13.36;100.00
56198;BME280;42700;42.524;12.052;2022-11-03T06:29:04;97692.41;;;13.44;100.00
56198;BME280;42700;42.524;12.052;2022-11-03T06:31:30;97717.28;;;13.52;100.00
56198;BME280;42700;42.524;12.052;2022-11-03T06:33:57;97817.94;;;13.64;100.00
56198;BME280;42700;42.524;12.052;2022-11-03T06:36:30;97879.00;;;13.74;100.00
56198;BME280;42700;42.524;12.052;2022-11-03T06:38:59;97873.53;;;13.82;100.00
56198;BME280;42700;42.524;12.052;2022-11-03T06:41:26;97949.56;;;13.93;100.00
56198;BME280;42700;42.524;12.052;2022-11-03T06:43:52;97899.94;;;13.99;100.00
56198;BME280;42700;42.524;12.052;2022-11-03T06:48:44;98053.31;;;14.18;100.00
56198;BME280;42700;42.524;12.052;2022-11-03T06:51:18;98068.41;;;14.26;100.00
56198;BME280;42700;42.524;12.052;2022-11-03T06:53:44;98140.66;;;14.39;100.00
56198;BME280;42700;42.524;12.052;2022-11-03T06:56:11;98116.63;;;14.39;100.00
56198;BME280;42700;42.524;12.052;2022-11-03T06:58:37;98192.38;;;14.53;100.00
56198;BME280;42700;42.524;12.052;2022-11-03T07:01:09;98186.47;;;14.57;100.00
56198;BME280;42700;42.524;12.052;2022-11-03T07:03:36;98204.66;;;14.62;100.00
56198;BME280;42700;42.524;12.052;2022-11-03T07:08:30;98312.22;;;14.86;100.00
56198;BME280;42700;42.524;12.052;2022-11-03T07:10:58;98342.38;;;14.94;100.00
56198;BME280;42700;42.524;12.052;2022-11-03T07:13:24;98327.59;;;14.99;100.00
56198;BME280;42700;42.524;12.052;2022-11-03T07:15:50;98325.19;;;15.04;100.00
56198;BME280;42700;42.524;12.052;2022-11-03T07:20:51;98316.16;;;15.05;100.00
56198;BME280;42700;42.524;12.052;2022-11-03T07:23:19;98412.22;;;15.21;100.00
56198;BME280;42700;42.524;12.052;2022-11-03T07:25:51;98346.72;;;15.17;100.00
56198;BME280;42700;42.524;12.052;2022-11-03T07:28:19;98382.78;;;15.21;100.00
56198;BME280;42700;42.524;12.052;2022-11-03T07:30:44;98341.81;;;15.21;100.00
56198;BME280;42700;42.524;12.052;2022-11-03T07:33:15;98220.31;;;15.08;100.00
56198;BME280;42700;42.524;12.052;2022-11-03T07:35:43;98307.63;;;15.16;100.00
56198;BME280;42700;42.524;12.052;2022-11-03T07:38:18;98294.25;;;15.16;100.00
56198;BME280;42700;42.524;12.052;2022-11-03T07:40:44;98265.84;;;15.15;100.00
56198;BME280;42700;42.524;12.052;2022-11-03T07:43:12;98332.41;;;15.25;100.00
56198;BME280;42700;42.524;12.052;2022-11-03T07:48:12;98619.47;;;15.85;100.00
56198;BME280;42700;42.524;12.052;2022-11-03T07:50:39;98594.25;;;15.94;100.00
56198;BME280;42700;42.524;12.052;2022-11-03T07:53:09;98363.84;;;15.66;100.00
56198;BME280;42700;42.524;12.052;2022-11-03T07:55:36;98623.97;;;15.99;100.00
56198;BME280;42700;42.524;12.052;2022-11-03T07:58:11;98789.66;;;16.32;100.00
56198;BME280;42700;42.524;12.052;2022-11-03T08:00:38;98734.03;;;16.34;100.00
56198;BME280;42700;42.524;12.052;2022-11-03T08:03:04;98968.06;;;16.79;100.00
56198;BME280;42700;42.524;12.052;2022-11-03T08:05:30;99073.84;;;17.15;100.00
56198;BME280;42700;42.524;12.052;2022-11-03T08:07:55;99012.56;;;17.19;100.00
56198;BME280;42700;42.524;12.052;2022-11-03T08:10:20;99088.63;;;17.26;100.00
56198;BME280;42700;42.524;12.052;2022-11-03T08:12:46;98712.00;;;16.97;100.00
56198;BME280;42700;42.524;12.052;2022-11-03T08:15:11;98609.81;;;16.70;100.00
56198;BME280;42700;42.524;12.052;2022-11-03T08:17:37;98694.47;;;16.79;100.00
56198;BME280;42700;42.524;12.052;2022-11-03T08:20:02;98661.47;;;16.79;100.00
56198;BME280;42700;42.524;12.052;2022-11-03T08:22:28;98540.06;;;16.64;100.00
56198;BME280;42700;42.524;12.052;2022-11-03T08:24:54;98458.59;;;16.36;100.00
56198;BME280;42700;42.524;12.052;2022-11-03T08:27:19;98368.16;;;16.17;100.00
56198;BME280;42700;42.524;12.052;2022-11-03T08:29:45;98285.69;;;16.05;100.00
56198;BME280;42700;42.524;12.052;2022-11-03T08:32:10;98405.94;;;16.22;100.00
56198;BME280;42700;42.524;12.052;2022-11-03T08:34:36;98526.25;;;16.38;100.00
56198;BME280;42700;42.524;12.052;2022-11-03T08:37:02;98579.06;;;16.45;100.00
56198;BME280;42700;42.524;12.052;2022-11-03T08:39:28;98497.78;;;16.37;100.00
56198;BME280;42700;42.524;12.052;2022-11-03T08:41:55;98425.56;;;16.29;100.00
56198;BME280;42700;42.524;12.052;2022-11-03T08:44:21;98589.97;;;16.43;100.00
56198;BME280;42700;42.524;12.052;2022-11-03T08:46:46;98682.72;;;16.59;100.00
56198;BME280;42700;42.524;12.052;2022-11-03T08:49:11;98636.53;;;16.57;100.00
56198;BME280;42700;42.524;12.052;2022-11-03T08:51:37;98601.84;;;16.55;100.00
56198;BME280;42700;42.524;12.052;2022-11-03T08:54:02;98582.47;;;16.53;100.00
56198;BME280;42700;42.524;12.052;2022-11-03T08:56:28;98538.22;;;16.42;100.00
56198;BME280;42700;42.524;12.052;2022-11-03T08:58:54;98636.91;;;16.54;100.00
56198;BME280;42700;42.524;12.052;2022-11-03T09:01:20;98627.81;;;16.55;100.00
56198;BME280;42700;42.524;12.052;2022-11-03T09:03:45;98693.09;;;16.62;100.00
56198;BME280;42700;42.524;12.052;2022-11-03T09:06:11;98841.53;;;16.91;100.00
56198;BME280;42700;42.524;12.052;2022-11-03T09:08:36;98874.25;;;17.01;100.00
56198;BME280;42700;42.524;12.052;2022-11-03T09:11:02;98939.66;;;17.15;100.00
56198;BME280;42700;42.524;12.052;2022-11-03T09:13:27;99004.69;;;17.32;100.00
56198;BME280;42700;42.524;12.052;2022-11-03T09:15:53;99070.84;;;17.55;100.00
56198;BME280;42700;42.524;12.052;2022-11-03T09:18:18;98985.03;;;17.46;100.00
56198;BME280;42700;42.524;12.052;2022-11-03T09:20:44;98939.00;;;17.49;100.00
56198;BME280;42700;42.524;12.052;2022-11-03T09:23:10;98823.81;;;17.33;100.00
56198;BME280;42700;42.524;12.052;2022-11-03T09:25:35;98931.72;;;17.43;100.00
56198;BME280;42700;42.524;12.052;2022-11-03T09:28:01;99047.31;;;17.57;100.00
56198;BME280;42700;42.524;12.052;2022-11-03T09:30:26;98967.50;;;17.50;100.00
56198;BME280;42700;42.524;12.052;2022-11-03T09:32:53;98717.78;;;17.22;100.00
56198;BME280;42700;42.524;12.052;2022-11-03T09:35:18;99002.59;;;17.49;100.00
56198;BME280;42700;42.524;12.052;2022-11-03T09:37:44;98747.13;;;17.24;100.00
56198;BME280;42700;42.524;12.052;2022-11-03T09:40:10;98651.81;;;17.06;100.00
56198;BME280;42700;42.524;12.052;2022-11-03T09:42:37;98746.88;;;17.19;100.00
56198;BME280;42700;42.524;12.052;2022-11-03T09:45:03;99090.47;;;17.55;100.00
56198;BME280;42700;42.524;12.052;2022-11-03T09:47:33;99007.03;;;17.57;100.00
56198;BME280;42700;42.524;12.052;2022-11-03T09:49:59;99166.84;;;17.82;100.00
56198;BME280;42700;42.524;12.052;2022-11-03T09:52:25;99398.13;;;18.19;100.00
56198;BME280;42700;42.524;12.052;2022-11-03T09:54:51;99480.34;;;18.43;100.00
56198;BME280;42700;42.524;12.052;2022-11-03T09:57:17;99525.19;;;18.51;100.00
56198;BME280;42700;42.524;12.052;2022-11-03T09:59:44;99958.50;;;19.20;100.00
56198;BME280;42700;42.524;12.052;2022-11-03T10:02:14;100121.88;;;19.67;100.00
56198;BME280;42700;42.524;12.052;2022-11-03T10:04:40;100037.63;;;19.73;100.00
56198;BME280;42700;42.524;12.052;2022-11-03T10:07:06;99988.34;;;19.65;100.00
56198;BME280;42700;42.524;12.052;2022-11-03T10:09:32;100192.22;;;19.89;100.00
56198;BME280;42700;42.524;12.052;2022-11-03T10:11:58;100149.44;;;19.86;100.00
56198;BME280;42700;42.524;12.052;2022-11-03T10:14:23;100543.91;;;20.36;100.00
56198;BME280;42700;42.524;12.052;2022-11-03T10:16:54;100336.88;;;20.21;100.00
56198;BME280;42700;42.524;12.052;2022-11-03T10:19:22;100581.16;;;20.49;100.00
56198;BME280;42700;42.524;12.052;2022-11-03T10:21:48;101030.88;;;21.10;100.00
56198;BME280;42700;42.524;12.052;2022-11-03T10:24:13;101384.34;;;21.85;100.00
56198;BME280;42700;42.524;12.052;2022-11-03T10:26:48;101442.63;;;22.06;100.00
56198;BME280;42700;42.524;12.052;2022-11-03T10:29:21;101734.16;;;22.50;100.00
56198;BME280;42700;42.524;12.052;2022-11-03T10:31:49;102293.91;;;23.35;100.00
56198;BME280;42700;42.524;12.052;2022-11-03T10:34:31;102709.97;;;24.12;100.00
56198;BME280;42700;42.524;12.052;2022-11-03T10:37:21;102592.84;;;24.35;100.00
56198;BME280;42700;42.524;12.052;2022-11-03T10:39:47;102575.03;;;24.50;100.00
56198;BME280;42700;42.524;12.052;2022-11-03T10:42:20;102008.53;;;24.12;100.00
56198;BME280;42700;42.524;12.052;2022-11-03T10:44:46;101823.00;;;23.95;100.00
56198;BME280;42700;42.524;12.052;2022-11-03T10:52:41;100533.03;;;22.70;100.00
56198;BME280;42700;42.524;12.052;2022-11-03T10:55:06;100664.72;;;22.71;100.00
56198;BME280;42700;42.524;12.052;2022-11-03T10:57:32;100508.38;;;22.50;100.00
56198;BME280;42700;42.524;12.052;2022-11-03T10:59:58;100477.38;;;22.38;100.00
56198;BME280;42700;42.524;12.052;2022-11-03T11:02:24;100438.22;;;22.25;100.00
56198;BME280;42700;42.524;12.052;2022-11-03T11:05:00;100472.31;;;22.20;100.00
56198;BME280;42700;42.524;12.052;2022-11-03T11:07:33;100322.16;;;22.01;100.00
56198;BME280;42700;42.524;12.052;2022-11-03T11:10:14;100286.63;;;21.89;100.00
56198;BME280;42700;42.524;12.052;2022-11-03T11:13:01;100393.63;;;21.91;100.00
56198;BME280;42700;42.524;12.052;2022-11-03T11:15:45;100511.06;;;21.97;100.00
56198;BME280;42700;42.524;12.052;2022-11-03T11:20:57;100662.03;;;22.02;100.00
56198;BME280;42700;42.524;12.052;2022-11-03T11:28:37;100476.56;;;21.76;100.00
56198;BME280;42700;42.524;12.052;2022-11-03T11:33:29;100496.91;;;21.72;100.00
56198;BME280;42700;42.524;12.052;2022-11-03T11:41:05;100209.34;;;21.35;100.00
56198;BME280;42700;42.524;12.052;2022-11-03T11:43:30;100172.63;;;21.26;100.00
56198;BME280;42700;42.524;12.052;2022-11-03T11:48:40;100229.91;;;21.21;100.00
56198;BME280;42700;42.524;12.052;2022-11-03T11:51:07;100226.72;;;21.17;100.00
56198;BME280;42700;42.524;12.052;2022-11-03T11:53:36;100361.09;;;21.24;100.00
56198;BME280;42700;42.524;12.052;2022-11-03T11:56:03;100513.84;;;21.34;100.00
56198;BME280;42700;42.524;12.052;2022-11-03T12:00:58;100202.88;;;21.06;100.00
56198;BME280;42700;42.524;12.052;2022-11-03T12:03:25;100020.44;;;20.89;100.00
56198;BME280;42700;42.524;12.052;2022-11-03T12:05:51;99899.78;;;20.74;100.00
56198;BME280;42700;42.524;12.052;2022-11-03T12:08:17;99765.03;;;20.58;100.00
56198;BME280;42700;42.524;12.052;2022-11-03T12:11:02;99626.38;;;20.37;100.00
56198;BME280;42700;42.524;12.052;2022-11-03T12:13:37;99459.56;;;20.13;100.00
56198;BME280;42700;42.524;12.052;2022-11-03T12:16:05;99575.91;;;20.09;100.00
56198;BME280;42700;42.524;12.052;2022-11-03T12:21:06;99910.13;;;20.11;100.00
56198;BME280;42700;42.524;12.052;2022-11-03T12:23:42;100009.72;;;20.13;100.00
56198;BME280;42700;42.524;12.052;2022-11-03T12:26:15;100048.19;;;20.06;100.00
56198;BME280;42700;42.524;12.052;2022-11-03T12:28:41;100095.41;;;20.02;100.00
56198;BME280;42700;42.524;12.052;2022-11-03T12:31:07;100111.97;;;19.99;100.00
56198;BME280;42700;42.524;12.052;2022-11-03T12:33:33;100056.78;;;19.87;100.00
56198;BME280;42700;42.524;12.052;2022-11-03T12:35:58;100118.50;;;19.73;100.00
56198;BME280;42700;42.524;12.052;2022-11-03T12:38:23;99776.50;;;19.26;100.00
56198;BME280;42700;42.524;12.052;2022-11-03T12:40:49;100197.06;;;19.54;100.00
56198;BME280;42700;42.524;12.052;2022-11-03T12:43:15;100041.56;;;19.40;100.00
56198;BME280;42700;42.524;12.052;2022-11-03T12:45:40;100024.88;;;19.36;100.00
56198;BME280;42700;42.524;12.052;2022-11-03T12:48:06;100051.66;;;19.38;100.00
56198;BME280;42700;42.524;12.052;2022-11-03T12:50:32;100062.59;;;19.36;100.00
56198;BME280;42700;42.524;12.052;2022-11-03T12:52:57;100079.63;;;19.36;100.00
56198;BME280;42700;42.524;12.052;2022-11-03T12:55:23;100226.72;;;19.46;100.00
56198;BME280;42700;42.524;12.052;2022-11-03T12:57:48;100190.03;;;19.45;100.00
56198;BME280;42700;42.524;12.052;2022-11-03T13:00:14;100115.31;;;19.39;100.00
56198;BME280;42700;42.524;12.052;2022-11-03T13:02:39;100191.72;;;19.46;100.00
56198;BME280;42700;42.524;12.052;2022-11-03T13:05:05;100186.31;;;19.46;100.00
56198;BME280;42700;42.524;12.052;2022-11-03T13:07:31;100221.19;;;19.47;100.00
56198;BME280;42700;42.524;12.052;2022-11-03T13:09:56;100376.94;;;19.60;100.00
56198;BME280;42700;42.524;12.052;2022-11-03T13:12:22;100519.13;;;19.75;100.00
56198;BME280;42700;42.524;12.052;2022-11-03T13:15:00;100533.97;;;19.79;100.00
56198;BME280;42700;42.524;12.052;2022-11-03T13:17:26;100556.22;;;19.81;100.00
56198;BME280;42700;42.524;12.052;2022-11-03T13:19:52;100545.44;;;19.81;100.00
56198;BME280;42700;42.524;12.052;2022-11-03T13:22:18;100591.59;;;19.86;100.00
56198;BME280;42700;42.524;12.052;2022-11-03T13:24:44;100482.75;;;19.79;100.00
56198;BME280;42700;42.524;12.052;2022-11-03T13:27:09;100452.59;;;19.75;100.00
56198;BME280;42700;42.524;12.052;2022-11-03T13:29:35;100372.38;;;19.69;100.00
56198;BME280;42700;42.524;12.052;2022-11-03T13:32:01;100563.31;;;19.82;100.00
56198;BME280;42700;42.524;12.052;2022-11-03T13:34:28;100586.56;;;19.83;100.00
56198;BME280;42700;42.524;12.052;2022-11-03T13:36:53;100847.69;;;20.04;100.00
56198;BME280;42700;42.524;12.052;2022-11-03T13:39:19;101338.72;;;20.58;100.00
56198;BME280;42700;42.524;12.052;2022-11-03T13:41:45;100902.28;;;20.32;100.00